»·PEaware :: N733EJ KSNA-L52

N733EJ :: KSNA-L52

FLIGHT INFORMATION

Flight Status: Arrived
Operator: Privately registered:
United States
More flights under this callsign
Pilot: Stephane C. (508)
Aircraft: CESSNA 172 SKYHAWK
(C172)
More flights by this aircraft type
Origin: KSNA John Wayne-Orange Co
United States
Destination: L52 Oceano Co
United States
More flights between these airports :: More routes between these airports
Route: VPLHP VPLQM VPLSR SMO CMA RZS GVO GLJ
File this flight plan on PilotEdge
Remarks:
Altitude:
(Current/Filed)
2,500ft
Speed:
(Current/Filed)
110kts
Departed: 19-Oct-17 10:27 AM
Arrived: 19-Oct-17 12:08 PM
Distance/Time
Traveled:
161nm/1:41
Distance/Time
To Go:
Arrived

Flight Plot

Page will automatically refresh every two minutes.

Flight plan parsing failed; only flown route is shown


Map Options




Map Legend


Flown Route
Filed Route
Departure Airport
Arrival Airport
Navaid (VOR, NDB)
Fix

Horizontal Profiles

Position Reports

Time Latitude Longitude Heading Altitude Ground
Speed
19-Oct-17 10:02 33.671108 -117.867624 17 49ft 0kts
19-Oct-17 10:03 33.671108 -117.867624 17 49ft 0kts
19-Oct-17 10:04 33.671108 -117.867624 17 49ft 0kts
19-Oct-17 10:05 33.671108 -117.867624 17 49ft 0kts
19-Oct-17 10:06 33.671108 -117.867624 17 49ft 0kts
19-Oct-17 10:07 33.671108 -117.867624 17 49ft 0kts
19-Oct-17 10:08 33.671108 -117.867624 17 49ft 0kts
19-Oct-17 10:09 33.671108 -117.867624 17 49ft 0kts
19-Oct-17 10:10 33.671108 -117.867624 17 49ft 0kts
19-Oct-17 10:11 33.671108 -117.867624 17 49ft 0kts
19-Oct-17 10:12 33.671108 -117.867624 17 49ft 0kts
19-Oct-17 10:13 33.671108 -117.867624 17 49ft 0kts
19-Oct-17 10:14 33.671108 -117.867624 17 49ft 0kts
19-Oct-17 10:15 33.671108 -117.867624 17 49ft 0kts
19-Oct-17 10:16 33.671108 -117.867624 17 49ft 0kts
19-Oct-17 10:17 33.671108 -117.867624 17 49ft 0kts
19-Oct-17 10:18 33.671108 -117.867624 17 49ft 0kts
19-Oct-17 10:19 33.671108 -117.867624 17 49ft 0kts
19-Oct-17 10:20 33.671108 -117.867624 17 49ft 0kts
19-Oct-17 10:21 33.671108 -117.867624 17 49ft 0kts
19-Oct-17 10:22 33.671108 -117.867624 17 49ft 0kts
19-Oct-17 10:23 33.671108 -117.867624 17 49ft 0kts
19-Oct-17 10:24 33.671340 -117.867828 297 49ft 4kts
19-Oct-17 10:25 33.672567 -117.867835 28 49ft 7kts
19-Oct-17 10:26 33.674083 -117.867108 27 46ft 5kts
19-Oct-17 10:27 33.676745 -117.865423 27 43ft 11kts
19-Oct-17 10:28 33.679412 -117.863723 27 40ft 9kts
19-Oct-17 10:29 33.679984 -117.863671 298 40ft 0kts
19-Oct-17 10:30 33.679984 -117.863670 298 40ft 0kts
19-Oct-17 10:31 33.680070 -117.864144 236 40ft 6kts
19-Oct-17 10:32 33.673305 -117.868502 206 179ft 67kts
19-Oct-17 10:33 33.657775 -117.884495 240 837ft 79kts
19-Oct-17 10:34 33.647217 -117.908249 242 1558ft 80kts
19-Oct-17 10:35 33.636838 -117.931952 240 2240ft 81kts
19-Oct-17 10:36 33.624065 -117.959473 242 2451ft 108kts
19-Oct-17 10:37 33.633293 -117.993067 310 2496ft 116kts
19-Oct-17 10:38 33.652890 -118.023591 303 2494ft 115kts
19-Oct-17 10:39 33.669450 -118.056736 303 2483ft 116kts
19-Oct-17 10:40 33.688341 -118.087889 308 2507ft 114kts
19-Oct-17 10:41 33.706242 -118.119750 303 2513ft 115kts
19-Oct-17 10:42 33.724237 -118.151897 307 2470ft 117kts
19-Oct-17 10:43 33.741412 -118.184537 303 2468ft 116kts
19-Oct-17 10:44 33.760032 -118.215725 312 2507ft 114kts
19-Oct-17 10:45 33.781705 -118.243485 315 2526ft 114kts
19-Oct-17 10:46 33.804985 -118.269581 317 2532ft 114kts
19-Oct-17 10:47 33.829025 -118.294572 317 2520ft 114kts
19-Oct-17 10:48 33.852519 -118.320488 316 2464ft 114kts
19-Oct-17 10:49 33.877896 -118.340082 333 2489ft 111kts
19-Oct-17 10:50 33.903849 -118.360263 322 2524ft 112kts
19-Oct-17 10:51 33.924379 -118.385216 247 2540ft 110kts
19-Oct-17 10:52 33.910404 -118.373340 37 2530ft 119kts
19-Oct-17 10:53 33.936120 -118.388056 317 2477ft 112kts
19-Oct-17 10:54 33.960576 -118.411484 326 2489ft 113kts
19-Oct-17 10:55 33.986162 -118.433730 325 2490ft 114kts
19-Oct-17 10:56 34.007823 -118.460294 288 2534ft 111kts
19-Oct-17 10:57 34.020409 -118.496012 295 2445ft 114kts
19-Oct-17 10:58 34.032212 -118.531419 274 2457ft 115kts
19-Oct-17 10:59 34.034371 -118.570543 272 2416ft 117kts
19-Oct-17 11:00 34.035388 -118.609866 272 2362ft 117kts
19-Oct-17 11:01 34.036441 -118.647501 273 2470ft 112kts
19-Oct-17 11:02 34.036095 -118.684427 268 2525ft 112kts
19-Oct-17 11:03 34.034905 -118.722402 267 2570ft 113kts
19-Oct-17 11:04 34.030463 -118.761109 261 2375ft 122kts
19-Oct-17 11:05 34.029748 -118.800201 278 2175ft 120kts
19-Oct-17 11:06 34.035468 -118.838768 279 1964ft 116kts
19-Oct-17 11:07 34.037824 -118.878177 283 1631ft 114kts
19-Oct-17 11:08 34.044393 -118.915541 282 1565ft 114kts
19-Oct-17 11:09 34.051150 -118.952634 286 1529ft 113kts
19-Oct-17 11:10 34.059857 -118.988985 271 1467ft 114kts
19-Oct-17 11:11 34.055244 -119.026333 261 1478ft 113kts
19-Oct-17 11:12 34.047890 -119.063171 265 1471ft 113kts
19-Oct-17 11:13 34.044171 -119.100176 259 1517ft 111kts
19-Oct-17 11:14 34.041432 -119.137145 276 1520ft 113kts
19-Oct-17 11:15 34.051666 -119.172694 295 1514ft 113kts
19-Oct-17 11:16 34.068164 -119.204397 309 1541ft 108kts
19-Oct-17 11:17 34.092124 -119.223796 3 1567ft 109kts
19-Oct-17 11:18 34.121802 -119.220854 0 1637ft 107kts
19-Oct-17 11:19 34.149629 -119.236018 311 1526ft 116kts
19-Oct-17 11:20 34.168743 -119.267272 303 1504ft 116kts
19-Oct-17 11:21 34.186459 -119.299519 305 1566ft 113kts
19-Oct-17 11:22 34.206059 -119.330171 308 1587ft 115kts
19-Oct-17 11:23 34.228822 -119.357791 316 1546ft 115kts
19-Oct-17 11:24 34.250418 -119.386383 319 1582ft 115kts
19-Oct-17 11:25 34.275345 -119.409233 322 2050ft 110kts
19-Oct-17 11:26 34.296946 -119.437110 301 2492ft 115kts
19-Oct-17 11:27 34.312999 -119.471381 297 2767ft 120kts
19-Oct-17 11:28 34.327301 -119.508023 295 3059ft 121kts
19-Oct-17 11:29 34.341233 -119.545678 291 3070ft 120kts
19-Oct-17 11:30 34.352099 -119.584604 285 3058ft 124kts
19-Oct-17 11:31 34.362977 -119.623919 288 3044ft 123kts
19-Oct-17 11:32 34.373836 -119.662748 285 3040ft 124kts
19-Oct-17 11:33 34.385183 -119.702001 288 2958ft 121kts
19-Oct-17 11:34 34.396998 -119.739156 288 3052ft 119kts
19-Oct-17 11:35 34.408698 -119.777402 286 3035ft 121kts
19-Oct-17 11:36 34.419433 -119.816217 280 3026ft 120kts
19-Oct-17 11:37 34.427954 -119.855608 283 3035ft 121kts
19-Oct-17 11:38 34.441369 -119.893632 296 3004ft 124kts
19-Oct-17 11:39 34.457028 -119.930103 291 3346ft 117kts
19-Oct-17 11:40 34.471997 -119.961924 305 3929ft 107kts
19-Oct-17 11:41 34.483702 -119.994441 294 4430ft 103kts
19-Oct-17 11:42 34.496012 -120.029364 305 4502ft 116kts
19-Oct-17 11:43 34.514310 -120.061238 307 4500ft 115kts
19-Oct-17 11:44 34.532091 -120.093433 304 4495ft 114kts
19-Oct-17 11:45 34.555847 -120.117730 321 4481ft 113kts
19-Oct-17 11:46 34.578693 -120.143987 316 4470ft 113kts
19-Oct-17 11:47 34.601397 -120.169610 319 4512ft 109kts
19-Oct-17 11:48 34.624823 -120.194662 319 4445ft 115kts
19-Oct-17 11:49 34.649432 -120.219245 323 4174ft 115kts
19-Oct-17 11:50 34.675433 -120.243672 323 3644ft 119kts
19-Oct-17 11:51 34.702071 -120.267777 325 3085ft 120kts
19-Oct-17 11:52 34.727092 -120.292520 319 2531ft 113kts
19-Oct-17 11:53 34.750881 -120.317195 321 1597ft 110kts
19-Oct-17 11:54 34.773601 -120.340038 319 1475ft 106kts
19-Oct-17 11:55 34.796291 -120.362850 325 2001ft 96kts
19-Oct-17 11:56 34.814690 -120.375348 330 2525ft 91kts
19-Oct-17 11:57 34.842070 -120.398458 316 2676ft 110kts
19-Oct-17 11:58 34.866143 -120.421569 322 2704ft 110kts
19-Oct-17 11:59 34.886575 -120.440559 315 2678ft 110kts
19-Oct-17 12:00 34.913687 -120.469109 316 2644ft 111kts
19-Oct-17 12:01 34.933018 -120.489590 315 2637ft 110kts
19-Oct-17 12:02 34.952611 -120.518034 307 2639ft 109kts
19-Oct-17 12:03 34.970550 -120.548161 305 2591ft 110kts
19-Oct-17 12:04 34.994852 -120.580417 316 2208ft 110kts
19-Oct-17 12:05 35.015684 -120.599080 326 1836ft 111kts
19-Oct-17 12:06 35.041536 -120.619589 317 1480ft 108kts
19-Oct-17 12:07 35.063571 -120.642836 314 1513ft 101kts
19-Oct-17 12:08 35.086296 -120.660320 359 1554ft 107kts
19-Oct-17 12:09 35.100451 -120.632997 105 1239ft 117kts
19-Oct-17 12:10 35.083926 -120.605968 140 783ft 93kts
19-Oct-17 12:11 35.088962 -120.598037 290 482ft 64kts
19-Oct-17 12:12 35.098212 -120.616139 300 117ft 58kts
19-Oct-17 12:13 35.102314 -120.623841 302 18ft 7kts
19-Oct-17 12:14 35.103120 -120.623841 310 18ft 3kts
19-Oct-17 12:15 35.103190 -120.624298 213 18ft 0kts
19-Oct-17 12:16 35.103190 -120.624298 213 18ft 0kts

Navigation Log

Ident Type
Flight plan parsing failed, navigation log unavailable